Time;durP1;ratioP1;P1;durP2;ratioP2;P2;SDS_P1;SDS_P2;PMS_P1;PMS_P2;Temp;Humidity;BMP_temperature;BMP_pressure;BME280_temperature;BME280_humidity;BME280_pressure;Samples;Min_cycle;Max_cycle;Signal;HPM_P1;HPM_P2
2022/07/13 00:01:15;;;;;;;5.18;2.30;;;;;;;16.49;100.00;97111.94;5076444;28;20066;-52
2022/07/13 00:03:43;;;;;;;2.90;2.30;;;;;;;16.52;100.00;97104.44;5078657;28;20522;-49
2022/07/13 00:06:12;;;;;;;5.72;2.65;;;;;;;16.51;100.00;97096.59;5083157;28;20475;-53
2022/07/13 00:08:42;;;;;;;3.22;2.53;;;;;;;16.71;100.00;97097.94;5078486;28;20071;-47
2022/07/13 00:11:11;;;;;;;3.80;2.70;;;;;;;16.60;100.00;97098.28;5083150;28;20071;-50
2022/07/13 00:13:40;;;;;;;6.25;5.00;;;;;;;16.76;100.00;97089.50;5083307;28;20072;-50
2022/07/13 00:16:08;;;;;;;5.05;2.22;;;;;;;16.72;100.00;97096.09;5085532;28;20079;-46
2022/07/13 00:18:37;;;;;;;3.25;2.08;;;;;;;16.57;100.00;97094.13;5082666;28;20607;-46
2022/07/13 00:21:05;;;;;;;3.00;2.15;;;;;;;16.12;100.00;97090.09;5077181;28;20068;-45
2022/07/13 00:23:34;;;;;;;3.53;2.10;;;;;;;16.26;100.00;97082.47;5085813;28;20079;-42
2022/07/13 00:26:04;;;;;;;4.95;2.30;;;;;;;16.12;100.00;97086.59;5083612;28;20287;-43
2022/07/13 00:28:32;;;;;;;4.32;2.38;;;;;;;16.24;100.00;97076.44;5084689;28;20080;-51
2022/07/13 00:31:00;;;;;;;4.80;2.83;;;;;;;16.02;100.00;97089.41;5077222;28;20075;-42
2022/07/13 00:33:29;;;;;;;2.97;2.50;;;;;;;16.16;100.00;97089.75;5085042;28;20090;-50
2022/07/13 00:35:57;;;;;;;10.15;3.20;;;;;;;16.08;100.00;97090.59;5082865;28;20459;-45
2022/07/13 00:38:26;;;;;;;5.82;3.53;;;;;;;16.18;100.00;97099.25;5083430;28;20480;-46
2022/07/13 00:40:54;;;;;;;3.97;2.90;;;;;;;16.33;100.00;97094.09;5074328;28;20072;-44
2022/07/13 00:43:24;;;;;;;4.53;3.55;;;;;;;16.37;100.00;97095.44;5085986;28;20082;-47
2022/07/13 00:45:53;;;;;;;9.48;4.30;;;;;;;16.28;100.00;97096.44;5075796;28;20532;-44
2022/07/13 00:48:22;;;;;;;4.28;2.70;;;;;;;16.36;100.00;97096.44;5083895;28;20060;-46
2022/07/13 00:50:51;;;;;;;6.78;3.22;;;;;;;16.32;100.00;97092.44;5082060;28;20071;-46
2022/07/13 00:53:19;;;;;;;5.55;2.85;;;;;;;16.33;100.00;97096.78;5081226;28;20526;-49
2022/07/13 00:55:47;;;;;;;14.35;7.70;;;;;;;16.34;100.00;97085.13;5078447;28;20063;-47
2022/07/13 00:58:16;;;;;;;6.32;3.50;;;;;;;16.31;100.00;97090.75;5085942;28;20079;-43
2022/07/13 01:00:46;;;;;;;5.63;2.92;;;;;;;16.15;100.00;97086.28;5078886;28;20086;-47
2022/07/13 01:03:14;;;;;;;6.38;3.55;;;;;;;16.11;100.00;97092.91;5079745;28;20084;-53
2022/07/13 01:05:43;;;;;;;5.18;3.20;;;;;;;16.40;100.00;97088.97;5081532;28;20068;-45
2022/07/13 01:08:12;;;;;;;4.65;3.20;;;;;;;16.27;100.00;97082.28;5085044;28;20068;-45
2022/07/13 01:10:43;;;;;;;6.05;3.38;;;;;;;16.28;100.00;97083.97;5083582;28;20075;-55
2022/07/13 01:13:12;;;;;;;5.65;3.47;;;;;;;16.32;100.00;97087.13;5086773;28;20078;-45
2022/07/13 01:15:40;;;;;;;5.07;3.30;;;;;;;16.27;100.00;97092.94;5083928;28;20060;-48
2022/07/13 01:18:12;;;;;;;3.58;2.85;;;;;;;16.28;100.00;97091.13;5083113;28;20442;-44
2022/07/13 01:20:40;;;;;;;5.35;3.65;;;;;;;16.05;100.00;97090.91;5080454;28;20087;-48
2022/07/13 01:23:11;;;;;;;4.45;3.17;;;;;;;16.09;100.00;97089.59;5078269;28;20507;-48
2022/07/13 01:25:40;;;;;;;4.63;3.00;;;;;;;16.11;100.00;97090.25;5085218;28;20072;-47
2022/07/13 01:28:09;;;;;;;4.38;3.30;;;;;;;16.11;100.00;97085.78;5077423;28;20549;-45
2022/07/13 01:30:38;;;;;;;5.85;3.60;;;;;;;16.07;100.00;97089.75;5078996;28;20128;-49
2022/07/13 01:33:06;;;;;;;4.93;2.97;;;;;;;16.05;100.00;97085.59;5083655;28;20075;-49
2022/07/13 01:35:34;;;;;;;5.63;3.28;;;;;;;15.89;100.00;97091.69;5080753;28;20080;-48
2022/07/13 01:38:03;;;;;;;5.97;3.13;;;;;;;15.93;100.00;97092.19;5081950;28;20070;-46
2022/07/13 01:40:33;;;;;;;6.25;3.53;;;;;;;15.98;100.00;97090.72;5080856;28;20076;-45
2022/07/13 01:43:01;;;;;;;11.70;4.50;;;;;;;15.90;100.00;97102.19;5080957;28;20075;-45
2022/07/13 01:45:29;;;;;;;5.40;3.80;;;;;;;15.98;100.00;97098.72;5077945;28;20467;-46
2022/07/13 01:47:58;;;;;;;5.03;3.42;;;;;;;16.02;100.00;97092.06;5083677;28;20064;-46
2022/07/13 01:50:27;;;;;;;5.78;2.97;;;;;;;15.89;100.00;97095.19;5077849;28;20103;-43
2022/07/13 01:52:56;;;;;;;5.97;3.22;;;;;;;15.42;100.00;97100.16;5077761;28;20056;-46
2022/07/13 01:55:25;;;;;;;3.85;2.83;;;;;;;15.57;100.00;97100.38;5082648;28;20075;-46
2022/07/13 01:57:59;;;;;;;4.18;2.83;;;;;;;15.22;100.00;97102.19;5082554;28;20087;-50
2022/07/13 02:00:29;;;;;;;5.28;3.10;;;;;;;15.21;100.00;97108.53;5079742;28;20459;-48
2022/07/13 02:02:57;;;;;;;8.55;3.20;;;;;;;15.29;100.00;97105.06;5076609;28;20542;-46
2022/07/13 02:05:27;;;;;;;5.03;3.22;;;;;;;15.54;100.00;97103.34;5079368;28;21285;-45
2022/07/13 02:07:55;;;;;;;5.40;3.28;;;;;;;15.52;100.00;97098.19;5079964;28;20076;-49
2022/07/13 02:10:34;;;;;;;4.65;2.90;;;;;;;15.27;100.00;97097.22;5078510;28;20087;-51
2022/07/13 02:13:05;;;;;;;5.10;2.97;;;;;;;15.59;100.00;97091.25;5075319;28;20079;-42
2022/07/13 02:15:34;;;;;;;;;;;;;;;15.57;100.00;97090.56;5072984;28;20048;-49
2022/07/13 02:18:02;;;;;;;5.72;3.47;;;;;;;15.62;100.00;97095.41;5076298;28;20406;-46
2022/07/13 02:20:31;;;;;;;5.55;3.58;;;;;;;15.56;100.00;97090.75;5071748;28;20080;-50
2022/07/13 02:23:00;;;;;;;7.38;3.15;;;;;;;15.56;100.00;97094.22;5078030;28;20080;-44
2022/07/13 02:25:28;;;;;;;5.72;2.90;;;;;;;15.59;100.00;97091.25;5073161;28;20087;-45
2022/07/13 02:27:56;;;;;;;3.72;2.78;;;;;;;15.53;100.00;97083.91;5077552;28;20071;-49
2022/07/13 02:30:26;;;;;;;3.17;2.58;;;;;;;15.38;100.00;97086.34;5073484;28;20071;-42
2022/07/13 02:32:56;;;;;;;6.35;3.17;;;;;;;15.16;100.00;97077.09;5078287;28;20091;-45
2022/07/13 02:35:26;;;;;;;5.95;3.10;;;;;;;15.21;100.00;97092.56;5075618;28;20087;-54
2022/07/13 02:37:54;;;;;;;8.27;3.40;;;;;;;15.21;100.00;97095.22;5079804;28;20040;-43
2022/07/13 02:40:23;;;;;;;5.55;3.58;;;;;;;15.05;100.00;97098.63;5076497;28;20093;-49
2022/07/13 02:42:51;;;;;;;6.90;3.63;;;;;;;15.13;100.00;97096.00;5071200;28;20102;-44
2022/07/13 02:45:20;;;;;;;5.63;3.38;;;;;;;15.20;100.00;97097.03;5076003;28;20072;-46
2022/07/13 02:47:50;;;;;;;4.88;3.30;;;;;;;15.05;100.00;97088.00;5075075;28;20083;-49
2022/07/13 02:50:18;;;;;;;6.97;3.40;;;;;;;14.98;100.00;97086.97;5078412;28;20083;-49
2022/07/13 02:52:47;;;;;;;4.30;3.10;;;;;;;15.09;100.00;97085.84;5077339;28;20079;-48
2022/07/13 02:55:15;;;;;;;5.95;3.20;;;;;;;15.07;100.00;97086.03;5075985;28;20481;-46
2022/07/13 02:57:43;;;;;;;5.25;3.10;;;;;;;14.90;100.00;97098.38;5075023;28;20087;-45
2022/07/13 03:00:12;;;;;;;5.68;3.30;;;;;;;15.15;100.00;97085.22;5073859;28;20079;-47
2022/07/13 03:02:41;;;;;;;4.78;3.05;;;;;;;15.09;100.00;97080.53;5075137;28;20526;-53
2022/07/13 03:05:10;;;;;;;4.85;3.22;;;;;;;15.03;100.00;97083.81;5074170;28;20627;-48
2022/07/13 03:07:39;;;;;;;6.57;3.40;;;;;;;14.95;100.00;97082.78;5076011;28;20084;-49
2022/07/13 03:10:08;;;;;;;3.97;2.65;;;;;;;14.93;100.00;97087.44;5075422;28;20080;-51
2022/07/13 03:12:36;;;;;;;7.32;3.20;;;;;;;14.55;100.00;97101.91;5074107;28;20107;-43
2022/07/13 03:15:06;;;;;;;7.63;3.55;;;;;;;14.65;100.00;97105.31;5070179;28;20079;-46
2022/07/13 03:17:35;;;;;;;6.15;3.15;;;;;;;14.75;100.00;97102.56;5069387;28;20083;-49
2022/07/13 03:20:05;;;;;;;5.45;3.20;;;;;;;14.87;100.00;97100.50;5078513;28;20084;-43
2022/07/13 03:22:35;;;;;;;4.88;3.20;;;;;;;14.84;100.00;97093.66;5081369;28;21681;-43
2022/07/13 03:25:04;;;;;;;5.60;3.05;;;;;;;14.63;100.00;97098.50;5076103;28;20072;-49
2022/07/13 03:27:33;;;;;;;6.57;3.30;;;;;;;14.70;100.00;97105.69;5079583;28;20105;-48
2022/07/13 03:30:01;;;;;;;7.40;3.08;;;;;;;14.86;100.00;97097.00;5083107;28;20493;-44
2022/07/13 03:32:29;;;;;;;7.03;3.40;;;;;;;15.01;100.00;97097.28;5079911;28;20080;-47
2022/07/13 03:34:58;;;;;;;5.25;3.35;;;;;;;15.02;100.00;97090.97;5080210;28;20064;-47
2022/07/13 03:37:26;;;;;;;5.78;3.05;;;;;;;15.05;100.00;97095.97;5083070;28;20068;-45
2022/07/13 03:39:56;;;;;;;4.15;3.15;;;;;;;15.11;100.00;97095.34;5078034;28;20076;-47
2022/07/13 03:42:24;;;;;;;5.87;3.50;;;;;;;15.03;100.00;97100.59;5081282;28;20075;-48
2022/07/13 03:44:52;;;;;;;4.70;3.20;;;;;;;15.09;100.00;97096.47;5076489;28;21044;-45
2022/07/13 03:47:21;;;;;;;4.25;2.90;;;;;;;15.18;100.00;97104.34;5078907;28;20693;-43
2022/07/13 03:49:49;;;;;;;4.82;3.10;;;;;;;15.14;100.00;97099.47;5077219;28;20080;-54
2022/07/13 03:52:17;;;;;;;4.50;3.30;;;;;;;15.14;100.00;97096.81;5076766;28;20490;-54
2022/07/13 03:54:46;;;;;;;4.03;2.90;;;;;;;15.33;100.00;97095.78;5077417;28;20032;-53
2022/07/13 03:57:16;;;;;;;7.57;3.42;;;;;;;15.69;100.00;97088.50;5077454;28;20076;-46
2022/07/13 03:59:44;;;;;;;5.57;4.07;;;;;;;16.56;100.00;97080.97;5077519;28;20083;-47
2022/07/13 04:02:16;;;;;;;6.22;3.70;;;;;;;17.62;100.00;97070.09;5077732;28;20080;-45
2022/07/13 04:04:44;;;;;;;5.22;3.75;;;;;;;18.69;100.00;97056.91;5092334;28;20541;-47
2022/07/13 04:07:13;;;;;;;6.43;3.72;;;;;;;19.42;100.00;97060.66;5091547;28;20090;-43
2022/07/13 04:09:41;;;;;;;5.07;3.55;;;;;;;20.50;100.00;97057.19;5091279;28;20079;-45
2022/07/13 04:12:09;;;;;;;4.28;3.70;;;;;;;21.18;100.00;97049.47;5091671;28;20581;-46
2022/07/13 04:14:39;;;;;;;3.72;3.42;;;;;;;21.59;100.00;97042.50;5091905;28;20079;-47
2022/07/13 04:17:07;;;;;;;4.70;3.72;;;;;;;21.97;100.00;97045.53;5091778;28;20091;-48
2022/07/13 04:19:36;;;;;;;4.47;4.00;;;;;;;22.34;100.00;97043.38;5091465;28;20080;-43
2022/07/13 04:22:04;;;;;;;5.88;3.42;;;;;;;22.62;100.00;97045.88;5087196;28;20087;-48
2022/07/13 04:24:32;;;;;;;6.57;3.63;;;;;;;23.35;100.00;97037.75;5092006;28;20084;-44
2022/07/13 04:27:01;;;;;;;8.73;3.67;;;;;;;23.39;100.00;97042.47;5091899;28;20198;-43
2022/07/13 04:29:29;;;;;;;6.07;3.30;;;;;;;22.56;100.00;97046.69;5091318;28;20071;-46
2022/07/13 04:31:59;;;;;;;5.15;3.50;;;;;;;21.50;100.00;97042.63;5090300;28;20091;-50
2022/07/13 04:34:27;;;;;;;3.50;3.03;;;;;;;22.75;100.00;97038.63;5086670;28;20114;-44
2022/07/13 04:36:56;;;;;;;3.58;2.97;;;;;;;23.31;100.00;97034.66;5091547;28;20083;-48
2022/07/13 04:39:24;;;;;;;4.88;3.00;;;;;;;24.30;100.00;97035.28;5091380;28;20079;-46
2022/07/13 04:41:53;;;;;;;4.10;2.67;;;;;;;23.76;100.00;97040.09;5091016;28;20091;-43
2022/07/13 04:44:21;;;;;;;4.57;2.75;;;;;;;24.45;100.00;97033.09;5091069;28;20084;-46
2022/07/13 04:46:49;;;;;;;6.07;2.88;;;;;;;23.25;100.00;97038.16;5091119;28;20104;-49
2022/07/13 04:49:20;;;;;;;2.70;2.50;;;;;;;24.92;100.00;97027.34;5089455;28;20091;-47
2022/07/13 04:51:48;;;;;;;;;;;;;;;24.60;100.00;97039.03;5091303;28;20071;-46
2022/07/13 04:54:16;;;;;;;4.50;2.55;;;;;;;24.60;100.00;97038.19;5091482;28;19959;-44
2022/07/13 04:56:45;;;;;;;4.65;2.30;;;;;;;24.45;100.00;97033.09;5092830;28;20098;-50
2022/07/13 04:59:14;;;;;;;7.15;2.55;;;;;;;24.46;100.00;97031.22;5101876;27;20426;-57
2022/07/13 05:01:42;;;;;;;3.78;2.58;;;;;;;23.90;100.00;97036.31;5090818;28;20700;-47
2022/07/13 05:04:11;;;;;;;3.65;2.30;;;;;;;24.88;100.00;97024.28;5085308;28;20080;-46
2022/07/13 05:06:41;;;;;;;3.85;2.40;;;;;;;24.39;100.00;97032.06;5086588;28;20088;-54
2022/07/13 05:09:09;;;;;;;5.72;2.47;;;;;;;25.03;100.00;97030.13;5089865;28;20076;-50
2022/07/13 05:11:39;;;;;;;3.45;2.42;;;;;;;24.96;100.00;97023.97;5088905;28;20064;-50
2022/07/13 05:14:08;;;;;;;2.25;2.00;;;;;;;25.89;100.00;97023.00;5090862;28;20091;-45
2022/07/13 05:16:36;;;;;;;5.75;2.38;;;;;;;24.57;100.00;97025.97;5088579;28;20071;-51
2022/07/13 05:19:05;;;;;;;4.43;2.50;;;;;;;24.63;100.00;97026.94;5090729;28;20079;-47
2022/07/13 05:21:33;;;;;;;4.30;2.30;;;;;;;25.70;100.00;97029.44;5090619;28;20511;-47
2022/07/13 05:24:03;;;;;;;3.92;2.28;;;;;;;24.50;100.00;97037.84;5090406;28;20078;-43
2022/07/13 05:26:31;;;;;;;3.90;2.33;;;;;;;26.37;100.00;97035.63;5090614;28;20080;-45
2022/07/13 05:29:02;;;;;;;3.85;2.20;;;;;;;25.73;100.00;97037.91;5090236;28;20068;-47
2022/07/13 05:31:30;;;;;;;2.85;2.20;;;;;;;25.27;100.00;97043.84;5089795;28;20075;-46
2022/07/13 05:33:59;;;;;;;3.90;2.33;;;;;;;26.12;100.00;97041.19;5090132;28;20075;-53
2022/07/13 05:36:27;;;;;;;4.32;2.35;;;;;;;26.87;94.57;97035.25;5090259;28;20082;-50
2022/07/13 05:38:56;;;;;;;4.30;2.20;;;;;;;26.69;96.13;97041.59;5090593;28;20529;-48
2022/07/13 05:41:27;;;;;;;2.80;2.05;;;;;;;26.81;93.10;97038.13;5089569;28;20071;-46
2022/07/13 05:43:55;;;;;;;4.65;2.35;;;;;;;26.62;100.00;97032.78;5090121;28;20082;-45
2022/07/13 05:46:24;;;;;;;3.97;2.60;;;;;;;26.92;97.79;97037.28;5083461;28;20078;-51
2022/07/13 05:48:52;;;;;;;4.20;2.30;;;;;;;27.24;94.59;97036.97;5084085;28;20079;-44
2022/07/13 05:51:21;;;;;;;2.95;2.17;;;;;;;25.46;100.00;97025.78;5089868;28;20087;-48
2022/07/13 05:54:02;;;;;;;3.67;2.20;;;;;;;25.21;100.00;97018.56;5096458;28;20484;-48
2022/07/13 05:56:52;;;;;;;3.25;2.20;;;;;;;25.70;100.00;97005.13;5088411;28;20087;-50
2022/07/13 05:59:20;;;;;;;2.90;2.03;;;;;;;25.71;100.00;97001.38;5083400;28;20072;-51
2022/07/13 06:01:48;;;;;;;3.13;1.65;;;;;;;25.68;100.00;97002.66;5089686;28;20088;-50
2022/07/13 06:04:17;;;;;;;4.20;1.70;;;;;;;25.37;100.00;96995.56;5086023;28;20530;-48
2022/07/13 06:06:46;;;;;;;4.20;1.50;;;;;;;25.06;100.00;96988.38;5089722;28;20075;-46
2022/07/13 06:09:14;;;;;;;3.38;1.60;;;;;;;24.55;100.00;96995.69;5089773;28;20071;-45
2022/07/13 06:11:43;;;;;;;3.80;1.95;;;;;;;23.97;100.00;96995.03;5089375;28;20083;-48
2022/07/13 06:14:12;;;;;;;4.43;1.42;;;;;;;24.29;100.00;96998.56;5086377;28;20086;-51
2022/07/13 06:16:41;;;;;;;3.47;1.70;;;;;;;24.41;100.00;96996.03;5089205;28;20090;-41
2022/07/13 06:19:09;;;;;;;4.30;1.40;;;;;;;23.16;100.00;97002.59;5089573;28;20103;-50
2022/07/13 06:21:38;;;;;;;7.32;1.77;;;;;;;23.33;100.00;97002.97;5089551;28;20083;-50
2022/07/13 06:24:07;;;;;;;3.92;1.60;;;;;;;23.56;100.00;97005.16;5089355;28;20498;-43
2022/07/13 06:26:35;;;;;;;4.30;1.70;;;;;;;23.58;100.00;96997.69;5078538;28;20072;-44
2022/07/13 06:29:05;;;;;;;2.03;1.50;;;;;;;23.74;100.00;96996.38;5082719;28;20084;-53
2022/07/13 06:31:34;;;;;;;5.53;1.88;;;;;;;23.43;100.00;96991.72;5083075;28;20115;-48
2022/07/13 06:34:03;;;;;;;2.63;1.55;;;;;;;23.11;100.00;96994.31;5089630;28;20075;-43
2022/07/13 06:36:31;;;;;;;2.70;1.55;;;;;;;23.71;100.00;96996.00;5089555;28;20080;-44
2022/07/13 06:38:59;;;;;;;3.97;1.50;;;;;;;24.10;100.00;96987.69;5088978;28;20079;-50
2022/07/13 06:41:28;;;;;;;5.00;1.50;;;;;;;23.54;100.00;96984.88;5079610;28;20091;-43
2022/07/13 06:43:56;;;;;;;3.83;1.52;;;;;;;24.12;100.00;96991.03;5086919;28;20074;-45
2022/07/13 06:46:25;;;;;;;4.43;1.60;;;;;;;24.29;100.00;96983.19;5089082;28;20079;-51
2022/07/13 06:48:55;;;;;;;4.45;1.58;;;;;;;24.48;100.00;96984.16;5091735;28;20070;-44
2022/07/13 06:51:24;;;;;;;3.17;1.73;;;;;;;24.56;100.00;96983.03;5090611;28;20067;-45
2022/07/13 06:53:52;;;;;;;5.80;1.55;;;;;;;24.49;100.00;96993.88;5083746;28;20091;-47
2022/07/13 06:56:21;;;;;;;2.67;1.40;;;;;;;24.86;100.00;96994.78;5086202;28;20079;-44
2022/07/13 06:58:50;;;;;;;6.35;1.60;;;;;;;25.20;100.00;96989.94;5082437;28;20075;-48
2022/07/13 07:01:19;;;;;;;4.75;1.58;;;;;;;25.38;100.00;96988.28;5088237;28;20110;-47
2022/07/13 07:03:47;;;;;;;1.93;1.33;;;;;;;25.41;100.00;96994.03;5084617;28;20087;-50
2022/07/13 07:06:17;;;;;;;4.95;1.60;;;;;;;25.60;100.00;96994.84;5088852;28;20518;-48
2022/07/13 07:08:46;;;;;;;3.13;1.50;;;;;;;25.60;100.00;96996.72;5087262;28;20079;-46
2022/07/13 07:11:14;;;;;;;3.10;1.60;;;;;;;25.84;100.00;96997.69;5088786;28;20075;-48
2022/07/13 07:13:42;;;;;;;3.38;1.40;;;;;;;25.43;100.00;96999.22;5088848;28;20072;-52
2022/07/13 07:16:10;;;;;;;2.85;1.38;;;;;;;25.69;100.00;97006.19;5088556;28;20079;-47
2022/07/13 07:18:39;;;;;;;3.25;1.63;;;;;;;25.55;100.00;97006.34;5088782;28;20489;-41
2022/07/13 07:21:29;;;;;;;1.55;1.25;;;;;;;25.59;100.00;97009.41;5088257;28;20080;-43
2022/07/13 07:23:57;;;;;;;3.47;1.50;;;;;;;25.62;100.00;97013.53;5087775;28;20569;-48
2022/07/13 07:26:26;;;;;;;4.18;1.50;;;;;;;25.98;100.00;97015.38;5088390;28;20072;-44
2022/07/13 07:28:54;;;;;;;2.92;1.45;;;;;;;25.46;100.00;97013.09;5088910;28;20088;-45
2022/07/13 07:31:22;;;;;;;6.20;1.67;;;;;;;26.02;100.00;97006.59;5088459;28;20526;-43
2022/07/13 07:33:51;;;;;;;4.90;1.80;;;;;;;26.11;100.00;97007.09;5088810;28;20103;-42
2022/07/13 07:36:19;;;;;;;5.70;1.85;;;;;;;26.34;100.00;97000.94;5088253;28;20550;-52
2022/07/13 07:38:49;;;;;;;5.65;1.95;;;;;;;26.41;100.00;96998.94;5088301;28;20086;-49
2022/07/13 07:41:17;;;;;;;11.70;2.50;;;;;;;26.05;100.00;96999.91;5083628;28;20075;-47
2022/07/13 07:43:46;;;;;;;6.63;1.73;;;;;;;26.87;100.00;96996.56;5088777;28;20526;-49
2022/07/13 07:46:15;;;;;;;5.93;1.70;;;;;;;26.79;100.00;96996.91;5087753;28;20080;-51
2022/07/13 07:48:43;;;;;;;5.82;1.77;;;;;;;26.74;100.00;96992.22;5097867;28;20075;-53
2022/07/13 07:51:12;;;;;;;5.57;1.90;;;;;;;27.23;100.00;96987.41;5082322;28;20072;-45
2022/07/13 07:53:40;;;;;;;3.80;2.08;;;;;;;27.23;100.00;96981.16;5088421;28;20075;-43
2022/07/13 07:56:10;;;;;;;6.43;1.67;;;;;;;27.56;84.28;96983.19;5087895;28;20549;-50
2022/07/13 07:58:38;;;;;;;8.05;1.90;;;;;;;27.85;81.57;96979.50;5087806;28;20079;-48
2022/07/13 08:01:07;;;;;;;6.07;1.67;;;;;;;27.86;80.24;96980.31;5087990;28;20608;-49
2022/07/13 08:03:37;;;;;;;3.92;1.58;;;;;;;27.78;77.80;96981.53;5084699;28;20077;-46
2022/07/13 08:06:06;;;;;;;5.18;1.75;;;;;;;27.74;78.43;96976.81;5090407;28;20103;-44
2022/07/13 08:08:36;;;;;;;4.40;1.55;;;;;;;28.28;71.59;96985.41;5092092;28;20068;-46
2022/07/13 08:11:16;;;;;;;5.53;1.70;;;;;;;28.70;71.89;96982.31;5091835;28;20075;-48
2022/07/13 08:13:44;;;;;;;3.88;1.50;;;;;;;28.01;76.22;96986.03;5092143;28;20076;-46
2022/07/13 08:16:13;;;;;;;6.45;1.50;;;;;;;28.11;65.78;96988.94;5091403;28;20557;-44
2022/07/13 08:18:41;;;;;;;4.05;1.60;;;;;;;28.36;63.38;96991.25;5091788;28;20084;-45
2022/07/13 08:21:30;;;;;;;2.58;1.40;;;;;;;29.07;56.46;96991.63;5088718;28;20103;-51
2022/07/13 08:23:58;;;;;;;1.95;1.50;;;;;;;29.64;54.66;96986.97;5085402;28;20526;-49
2022/07/13 08:26:29;;;;;;;2.67;1.40;;;;;;;30.07;53.67;96991.53;5085987;28;20079;-45
2022/07/13 08:28:59;;;;;;;4.85;1.40;;;;;;;30.08;57.40;96993.19;5085790;28;20079;-49
2022/07/13 08:31:27;;;;;;;2.15;1.23;;;;;;;30.13;50.13;96992.41;5091068;28;20079;-46
2022/07/13 08:39:29;;;;;;;4.03;1.27;;;;;;;30.43;47.29;96987.28;5091714;28;20094;-45
2022/07/13 08:41:59;;;;;;;3.83;1.35;;;;;;;30.29;47.13;96982.53;5094935;28;20443;-44
2022/07/13 08:44:27;;;;;;;;;;;;;;;30.49;44.20;96983.53;5098287;28;20435;-50
2022/07/13 08:47:01;;;;;;;1.60;1.00;;;;;;;30.55;39.79;96983.56;5086889;28;19959;-49
2022/07/13 08:49:30;;;;;;;4.00;1.10;;;;;;;30.54;42.61;96980.03;5091580;28;20088;-46
2022/07/13 08:51:59;;;;;;;5.00;1.23;;;;;;;30.54;43.34;96980.03;5087114;28;20063;-47
2022/07/13 08:54:29;;;;;;;2.15;1.30;;;;;;;30.34;43.82;96975.22;5093028;28;20086;-46
2022/07/13 08:56:59;;;;;;;6.03;1.30;;;;;;;31.04;42.74;96972.50;5091121;28;20099;-46
2022/07/13 08:59:28;;;;;;;1.38;1.10;;;;;;;31.41;43.65;96964.28;5091052;28;20530;-51
2022/07/13 09:01:56;;;;;;;2.45;1.08;;;;;;;31.66;39.72;96969.06;5090928;28;20078;-48
2022/07/13 09:04:25;;;;;;;2.63;1.10;;;;;;;31.67;40.65;96970.69;5089098;28;20066;-45
2022/07/13 09:06:55;;;;;;;1.52;1.00;;;;;;;30.56;41.42;96977.03;5090982;28;20075;-51
2022/07/13 09:09:24;;;;;;;;;;;;;;;30.24;41.61;96977.84;5091586;28;20043;-46
2022/07/13 09:12:17;;;;;;;1.30;0.90;;;;;;;30.96;41.30;96980.09;5090263;28;19959;-49
2022/07/13 09:14:51;;;;;;;3.03;0.98;;;;;;;29.64;40.77;96984.25;5091065;28;20525;-45
2022/07/13 09:17:33;;;;;;;2.90;1.30;;;;;;;30.65;40.42;96979.03;5088851;28;20067;-47
2022/07/13 09:20:04;;;;;;;2.25;1.00;;;;;;;30.88;39.55;96986.03;5086382;28;20459;-48
2022/07/13 09:22:32;;;;;;;1.45;1.00;;;;;;;30.92;38.46;96987.16;5086336;28;20090;-44
2022/07/13 09:25:01;;;;;;;1.35;1.00;;;;;;;31.41;37.36;96984.19;5091143;28;20490;-47
2022/07/13 09:27:46;;;;;;;1.38;1.00;;;;;;;30.90;37.12;96975.72;5090738;28;20079;-53
2022/07/13 09:30:21;;;;;;;2.35;0.95;;;;;;;31.60;36.16;96981.03;5083814;28;20063;-48
2022/07/13 09:32:50;;;;;;;1.30;1.00;;;;;;;32.28;36.07;96984.53;5090535;28;20454;-53
2022/07/13 09:35:20;;;;;;;1.42;1.00;;;;;;;31.94;35.77;96983.34;5090645;28;20084;-54
2022/07/13 09:37:49;;;;;;;3.28;0.90;;;;;;;32.34;35.15;96977.94;5093486;28;20497;-46
2022/07/13 09:40:18;;;;;;;2.38;1.10;;;;;;;32.62;33.01;96981.28;5093238;28;20095;-49
2022/07/13 09:46:08;;;;;;;2.10;1.10;;;;;;;31.31;35.07;96975.13;5090123;28;20068;-47
2022/07/13 09:48:26;;;;;;;1.50;1.00;;;;;;;32.41;33.77;96965.94;5089537;28;20079;-46
2022/07/13 09:50:55;;;;;;;1.58;1.00;;;;;;;32.39;34.30;96964.31;5090029;28;20627;-45
2022/07/13 09:53:25;;;;;;;1.38;0.82;;;;;;;31.58;36.08;96964.09;5090342;28;20498;-47
2022/07/13 09:55:54;;;;;;;1.13;0.82;;;;;;;31.95;35.40;96963.16;5090280;28;20076;-46
2022/07/13 09:58:28;;;;;;;2.43;0.87;;;;;;;32.68;33.71;96957.50;5078622;28;20465;-47
2022/07/13 10:00:58;;;;;;;2.63;0.90;;;;;;;32.86;33.26;96951.47;5089810;28;20076;-51
2022/07/13 10:03:29;;;;;;;1.13;0.95;;;;;;;32.06;32.74;96956.63;5089727;28;20075;-45
2022/07/13 10:06:00;;;;;;;3.80;0.90;;;;;;;32.27;32.43;96966.47;5090473;28;20494;-47
2022/07/13 10:08:28;;;;;;;2.00;0.90;;;;;;;32.30;32.33;96968.66;5089709;28;20392;-45
2022/07/13 10:10:57;;;;;;;2.22;0.80;;;;;;;32.17;33.13;96973.84;5089403;28;20613;-45
2022/07/13 10:13:26;;;;;;;2.45;0.80;;;;;;;32.13;32.85;96970.84;5085694;28;20467;-46
2022/07/13 10:15:55;;;;;;;;;;;;;;;31.28;33.79;96981.09;5090360;28;20093;-46
2022/07/13 10:18:44;;;;;;;2.45;0.75;;;;;;;31.68;33.58;96975.84;5090422;28;19959;-48
2022/07/13 10:21:16;;;;;;;0.68;0.68;;;;;;;32.41;33.42;96976.88;5080297;28;20076;-51
2022/07/13 10:23:44;;;;;;;0.95;0.90;;;;;;;31.56;32.95;96975.28;5089790;28;20443;-45
2022/07/13 10:26:21;;;;;;;0.90;0.90;;;;;;;31.80;33.02;96974.84;5086583;28;20079;-54
2022/07/13 10:29:08;;;;;;;1.40;0.85;;;;;;;30.32;32.09;96971.09;5084289;28;20079;-51
2022/07/13 10:31:38;;;;;;;1.25;0.77;;;;;;;30.58;33.56;96964.00;5089229;28;20140;-47
2022/07/13 10:34:09;;;;;;;2.25;0.88;;;;;;;31.42;32.55;96960.50;5090949;28;20075;-49
2022/07/13 10:36:55;;;;;;;1.75;0.80;;;;;;;31.61;32.31;96966.28;5091472;28;20403;-45
2022/07/13 10:39:25;;;;;;;1.48;0.77;;;;;;;32.06;32.02;96968.34;5087479;28;20071;-47
2022/07/13 10:42:00;;;;;;;;;;;;;;;30.92;31.64;96976.25;5083410;28;20082;-47
2022/07/13 10:44:35;;;;;;;1.63;0.80;;;;;;;30.73;32.62;96966.84;5086388;28;20386;-45
2022/07/13 10:47:05;;;;;;;1.38;0.70;;;;;;;31.37;29.04;96976.81;5089180;28;20080;-53
2022/07/13 10:49:44;;;;;;;0.52;0.52;;;;;;;32.56;29.01;96975.00;5089397;28;20445;-46
2022/07/13 10:52:52;;;;;;;0.57;0.52;;;;;;;33.00;29.51;96973.63;5089027;28;20075;-44
2022/07/13 10:55:46;;;;;;;1.35;0.55;;;;;;;33.54;29.03;96962.81;5088186;28;20091;-52
2022/07/13 10:58:45;;;;;;;1.10;0.65;;;;;;;32.21;29.54;96967.59;5082618;28;20087;-46
2022/07/13 11:01:50;;;;;;;0.60;0.50;;;;;;;32.35;26.19;96956.94;5086140;28;20092;-44
2022/07/13 11:04:20;;;;;;;0.50;0.50;;;;;;;32.13;28.11;96954.44;5082014;28;20079;-52
2022/07/13 11:07:07;;;;;;;2.05;0.70;;;;;;;32.71;29.98;96951.50;5089276;28;20083;-45
2022/07/13 11:09:36;;;;;;;1.10;0.55;;;;;;;31.80;28.11;96948.38;5088791;28;20125;-45
2022/07/13 11:12:20;;;;;;;0.70;0.70;;;;;;;32.97;29.22;96941.41;5088840;28;20076;-45
2022/07/13 11:14:51;;;;;;;0.95;0.75;;;;;;;33.14;28.73;96932.88;5089182;28;20064;-51
2022/07/13 11:17:23;;;;;;;0.60;0.50;;;;;;;33.19;24.52;96933.69;5089188;28;20064;-45
2022/07/13 11:20:07;;;;;;;0.80;0.60;;;;;;;32.96;28.13;96932.38;5088952;28;20508;-51
2022/07/13 11:25:33;;;;;;;1.50;0.80;;;;;;;32.75;29.64;96931.56;5070200;28;20075;-51
2022/07/13 11:28:07;;;;;;;1.48;0.50;;;;;;;31.82;25.16;96929.81;5088669;28;20477;-48
2022/07/13 11:30:37;;;;;;;1.52;0.50;;;;;;;32.03;26.33;96921.69;5089484;28;20075;-47
2022/07/13 11:33:10;;;;;;;0.75;0.50;;;;;;;32.78;26.11;96917.34;5098598;28;20078;-44
2022/07/13 11:35:45;;;;;;;0.50;0.50;;;;;;;32.26;25.68;96926.63;5087390;28;20080;-44
2022/07/13 11:38:16;;;;;;;2.92;0.73;;;;;;;32.70;27.15;96915.19;5086594;28;20060;-45
2022/07/13 11:40:45;;;;;;;1.27;0.80;;;;;;;32.26;28.58;96929.38;5084260;28;20411;-43
2022/07/13 11:43:13;;;;;;;0.80;0.70;;;;;;;32.85;29.17;96915.16;5092604;28;20493;-47
2022/07/13 11:45:42;;;;;;;0.90;0.70;;;;;;;33.19;27.81;96913.72;5091806;28;20154;-51
2022/07/13 11:48:13;;;;;;;2.47;0.80;;;;;;;33.75;26.13;96919.78;5092693;28;20081;-50
2022/07/13 11:50:48;;;;;;;1.27;0.70;;;;;;;32.73;28.16;96909.16;5092723;28;20064;-47
2022/07/13 11:53:21;;;;;;;0.80;0.52;;;;;;;33.28;26.49;96903.88;5092072;28;20084;-47
2022/07/13 11:55:49;;;;;;;1.13;0.70;;;;;;;33.71;26.75;96906.94;5085001;28;20509;-54